Latest Coastal Weather Observations for Port Hedland

IDW60701

Issued at 8:23 am WST Monday 5 December 2016 (issued every 10 minutes, with the page automatically refreshed every 10 minutes)

About coastal observations | Map of coastal stations | Coastal observations for WA | Marine services | Other Formats
Station Details ID: 004032 Name: PORT HEDLAND AIRPORT Lat: -20.37 Lon: 118.63 Height: 6.4 m
Data from the previous 72 hours. | See also: Recent months at Port Hedland
Date/Time
WST
Temp
°C
Wind Pressure Rain since
9am
mm
Weather Cloud Vis
km
Sea
Height
m
Swell
Dir  Spd
kts
Gust
kts
hPa Trend Height
m
Period
s
Dir
05/08:00am 28.7 NNW 10 13 1009.5 - 0.0 - Mostly clear 10 - - - -
05/07:30am 27.8 WNW 9 12 1009.4 - 0.0 - Mostly clear 10 - - - -
05/07:00am 27.4 WNW 10 12 1009.4 - 0.0 - Mostly clear 10 - - - -
05/06:30am 26.5 NW 8 10 1009.3 - 0.0 - Partly cloudy 10 - - - -
05/06:00am 25.9 W 9 11 1009.0 - 0.0 - Mostly cloudy 10 - - - -
05/05:30am 25.8 WNW 8 11 1008.9 - 0.0 - Partly cloudy 10 - - - -
05/05:00am 25.6 WNW 7 9 1008.6 - 0.0 - Partly cloudy 10 - - - -
05/04:30am 25.6 WNW 7 10 1008.5 - 0.0 - Partly cloudy 10 - - - -
05/04:00am 25.5 WNW 10 13 1008.4 - 0.0 - Partly cloudy 10 - - - -
05/03:30am 25.7 W 10 13 1008.1 - 0.0 - Partly cloudy 10 - - - -
05/03:00am 25.7 WNW 10 13 1007.9 - 0.0 - Partly cloudy 10 - - - -
05/02:30am 25.6 WNW 11 14 1008.0 - 0.0 - Partly cloudy 10 - - - -
05/02:00am 25.6 W 10 13 1007.9 - 0.0 - Partly cloudy 10 - - - -
05/01:30am 25.8 W 11 14 1008.1 - 0.0 - Partly cloudy 10 - - - -
05/01:00am 25.9 WNW 10 13 1008.3 - 0.0 - Partly cloudy 10 - - - -
05/12:30am 25.7 WNW 8 11 1008.4 - 0.0 - Partly cloudy 10 - - - -
05/12:00am 25.8 W 10 13 1008.5 - 0.0 - - 10 - - - -
 
Date/Time
WST
Temp
°C
Wind Pressure Rain since
9am
mm
Weather Cloud Vis
km
Sea
Height
m
Swell
Dir  Spd
kts
Gust
kts
hPa Trend Height
m
Period
s
Dir
04/11:30pm 25.9 W 10 12 1008.9 - 0.0 - Partly cloudy 10 - - - -
04/11:00pm 26.1 WNW 10 13 1009.1 - 0.0 - - 10 - - - -
04/10:30pm 26.2 WNW 10 14 1009.1 - 0.0 - - 10 - - - -
04/10:00pm 26.2 WNW 11 13 1009.0 - 0.0 - Partly cloudy 10 - - - -
04/09:30pm 26.2 WNW 9 11 1008.8 - 0.0 - - 10 - - - -
04/09:00pm 26.3 WNW 9 11 1008.6 - 0.0 - Mostly clear 10 - - - -
04/08:30pm 26.3 WNW 10 12 1008.6 - 0.0 - - 10 - - - -
04/08:00pm 26.4 WNW 11 13 1008.1 - 0.0 - - 10 - - - -
04/07:30pm 26.6 WNW 11 14 1008.0 - 0.0 - - 10 - - - -
04/07:00pm 26.8 WNW 13 17 1007.5 - 0.0 - - 10 - - - -
04/06:30pm 27.2 WNW 14 18 1007.2 - 0.0 - - 10 - - - -
04/06:00pm 27.7 WNW 14 18 1006.8 - 0.0 - - 10 - - - -
04/05:30pm 27.9 WNW 14 17 1006.7 - 0.0 - - 10 - - - -
04/05:00pm 28.3 WNW 15 19 1006.6 - 0.0 - - 10 - - - -
04/04:30pm 28.8 NW 16 19 1006.3 - 0.0 - - 10 - - - -
04/04:00pm 28.3 NW 15 21 1006.6 - 0.0 - - 10 - - - -
04/03:30pm 28.4 NW 16 20 1006.9 - 0.0 - - 10 - - - -
04/03:00pm 29.1 NNW 16 19 1007.0 - 0.0 - - 10 - - - -
04/02:30pm 30.1 NW 15 23 1007.4 - 0.0 - - 10 - - - -
04/02:00pm 30.7 NNW 16 22 1007.9 - 0.0 - - 10 - - - -
04/01:30pm 30.3 NW 15 19 1007.9 - 0.0 - - 10 - - - -
04/01:00pm 30.6 NW 16 21 1008.0 - 0.0 - - 10 - - - -
04/12:30pm 30.5 NW 14 19 1008.4 - 0.0 - - 10 - - - -
04/12:00pm 29.8 NW 13 17 1008.4 - 0.0 - - 10 - - - -
04/11:30am 30.0 NW 13 17 1008.7 - 0.0 - - 10 - - - -
04/11:00am 29.5 NW 13 18 1008.9 - 0.0 - - 10 - - - -
04/10:30am 29.8 NNW 13 17 1009.2 - 0.0 - - 10 - - - -
04/10:00am 29.1 NW 12 16 1009.3 - 0.0 - Partly cloudy 10 - - - -
04/09:30am 28.4 NNW 11 14 1009.1 - 0.0 - - 10 - - - -
04/09:00am 28.8 NNW 11 13 1008.8 - 0.0 - - 10 - - - -
04/08:30am 28.4 NNW 10 13 1008.8 - 0.0 - - 10 - - - -
04/08:00am 28.1 WNW 10 13 1008.6 - 0.0 - - 10 - - - -
04/07:30am 27.7 WNW 10 13 1008.4 - 0.0 - - 10 - - - -
04/07:00am 28.2 WNW 9 13 1008.4 - 0.0 - - 10 - - - -
04/06:30am 26.8 NW 7 9 1008.5 - 0.0 - - 10 - - - -
04/06:00am 26.2 WNW 8 10 1008.3 - 0.0 - - 10 - - - -
04/05:30am 25.6 W 8 11 1008.2 - 0.0 - - 10 - - - -
04/05:00am 25.6 W 9 11 1008.1 - 0.0 - - 10 - - - -
04/04:30am 25.4 W 7 10 1007.9 - 0.0 - - 10 - - - -
04/04:00am 25.3 W 9 11 1007.6 - 0.0 - - 10 - - - -
04/03:30am 25.4 W 7 10 1007.7 - 0.0 - - 10 - - - -
04/03:00am 25.4 W 7 8 1007.6 - 0.0 - - 10 - - - -
04/02:30am 25.5 W 9 12 1007.9 - 0.0 - - 10 - - - -
04/02:00am 25.7 W 10 13 1007.7 - 0.0 - - 10 - - - -
04/01:30am 25.9 W 11 15 1007.7 - 0.0 - - 10 - - - -
04/01:00am 26.1 W 12 15 1007.7 - 0.0 - - 10 - - - -
04/12:30am 26.4 W 14 17 1007.7 - 0.0 - - 10 - - - -
04/12:00am 26.7 WNW 12 17 1008.0 - 0.0 - - 10 - - - -
 
Date/Time
WST
Temp
°C
Wind Pressure Rain since
9am
mm
Weather Cloud Vis
km
Sea
Height
m
Swell
Dir  Spd
kts
Gust
kts
hPa Trend Height
m
Period
s
Dir
03/11:30pm 26.7 WNW 13 16 1008.4 - 0.0 - - 10 - - - -
03/11:00pm 26.6 WNW 10 12 1008.8 - 0.0 - - 10 - - - -
03/10:30pm 26.4 WNW 10 11 1008.8 - 0.0 - - 10 - - - -
03/10:00pm 26.4 W 10 13 1008.7 - 0.0 - - 10 - - - -
03/09:30pm 26.5 W 11 14 1008.6 - 0.0 - - 10 - - - -
03/09:00pm 26.8 WNW 13 16 1008.4 - 0.0 - - 10 - - - -
03/08:30pm 27.0 WNW 10 13 1008.3 - 0.0 - - 10 - - - -
03/08:00pm 27.1 WNW 10 14 1008.2 - 0.0 - - 10 - - - -
03/07:30pm 27.2 WNW 11 14 1007.9 - 0.0 - - 10 - - - -
03/07:00pm 27.3 NW 12 14 1007.5 - 0.0 - - 10 - - - -
03/06:30pm 27.7 WNW 14 18 1007.1 - 0.0 - - 10 - - - -
03/06:00pm 28.4 NW 16 18 1006.9 - 0.0 - - 10 - - - -
03/05:30pm 29.3 NW 16 19 1006.7 - 0.0 - - 10 - - - -
03/05:00pm 30.0 NW 17 20 1006.2 - 0.0 - - 10 - - - -
03/04:30pm 30.5 NW 18 21 1006.2 - 0.0 - - 10 - - - -
03/04:00pm 31.0 NW 18 21 1006.1 - 0.0 - - 10 - - - -
03/03:30pm 31.1 NW 18 22 1006.1 - 0.0 - - 10 - - - -
03/03:00pm 31.5 NW 18 22 1006.2 - 0.0 - - 10 - - - -
03/02:30pm 32.1 NW 18 22 1006.3 - 0.0 - - 10 - - - -
03/02:00pm 32.8 NW 16 20 1006.4 - 0.0 - - 10 - - - -
03/01:30pm 32.1 NW 18 23 1006.6 - 0.0 - - 10 - - - -
03/01:00pm 32.4 NW 18 23 1006.9 - 0.0 - - 10 - - - -
03/12:30pm 31.7 NW 19 23 1007.1 - 0.0 - - 10 - - - -
03/12:00pm 31.6 NW 19 23 1007.2 - 0.0 - - 10 - - - -
03/11:30am 31.7 NW 18 25 1007.5 - 0.0 - - 10 - - - -
03/11:00am 30.9 NW 17 23 1007.8 - 0.0 - - 10 - - - -
03/10:30am 31.1 NNW 16 21 1007.9 - 0.0 - - 10 - - - -
03/10:00am 31.4 NNW 15 19 1008.0 - 0.0 - - 10 - - - -
03/09:30am 31.5 WNW 13 17 1007.9 - 0.0 - - 10 - - - -
03/09:00am 30.9 NW 13 17 1007.9 - 0.0 - - 10 - - - -
03/08:30am 30.6 NW 11 17 1008.0 - 0.0 - - 10 - - - -
03/08:00am 30.3 NW 11 15 1008.0 - 0.0 - - 10 - - - -
03/07:30am 29.6 WNW 10 12 1007.7 - 0.0 - - 10 - - - -
03/07:00am 28.6 W 10 14 1007.7 - 0.0 - - 10 - - - -
03/06:30am 27.3 WNW 8 10 1007.4 - 0.0 - - 10 - - - -
03/06:00am 26.4 WNW 9 11 1006.8 - 0.0 - - 10 - - - -
03/05:30am 26.4 WNW 9 11 1006.4 - 0.0 - - 10 - - - -
03/05:00am 26.1 WNW 10 13 1005.9 - 0.0 - - 10 - - - -
03/04:30am 25.7 W 8 11 1005.7 - 0.0 - - 10 - - - -
03/04:00am 26.0 W 12 15 1005.2 - 0.0 - - 10 - - - -
03/03:30am 25.5 WNW 11 14 1005.4 - 0.0 - - 10 - - - -
03/03:00am 25.7 W 11 14 1005.1 - 0.0 - - 10 - - - -
03/02:30am 25.9 W 11 15 1005.3 - 0.0 - - 10 - - - -
03/02:00am 26.1 W 11 13 1005.6 - 0.0 - - 10 - - - -
03/01:30am 26.0 WNW 9 11 1006.2 - 0.0 - - 10 - - - -
03/01:00am 26.0 W 9 11 1006.4 - 0.0 - - 10 - - - -
03/12:30am 26.2 W 9 11 1006.5 - 0.0 - - 10 - - - -
03/12:00am 26.4 W 9 11 1006.5 - 0.0 - - 10 - - - -
 
Date/Time
WST
Temp
°C
Wind Pressure Rain since
9am
mm
Weather Cloud Vis
km
Sea
Height
m
Swell
Dir  Spd
kts
Gust
kts
hPa Trend Height
m
Period
s
Dir
02/11:30pm 26.5 WNW 8 9 1006.8 - 0.0 - - 10 - - - -
02/11:00pm 26.9 WNW 9 11 1006.8 - 0.0 - - 10 - - - -
02/10:30pm 27.1 WNW 9 11 1007.1 - 0.0 - - 10 - - - -
02/10:00pm 27.2 WNW 8 10 1007.0 - 0.0 - - 10 - - - -
02/09:30pm 27.2 WNW 9 12 1006.8 - 0.0 - - 10 - - - -
02/09:00pm 27.3 WNW 11 16 1006.4 - 0.0 - - 10 - - - -
02/08:30pm 27.5 WNW 12 16 1006.1 - 0.0 - - 10 - - - -
02/08:00pm 27.6 WNW 14 19 1005.8 - 0.0 - - 10 - - - -
02/07:30pm 27.8 WNW 15 17 1005.4 - 0.0 - - 10 - - - -
02/07:00pm 27.9 WNW 16 20 1005.0 - 0.0 - - 10 - - - -
02/06:30pm 28.2 WNW 17 21 1004.8 - 0.0 - - 10 - - - -
02/06:00pm 29.1 NW 19 23 1004.2 - 0.0 - - 10 - - - -
02/05:30pm 30.2 NW 19 24 1004.2 - 0.0 - - 10 - - - -
02/05:00pm 30.5 NW 19 23 1004.1 - 0.0 - - 10 - - - -
02/04:30pm 31.3 WNW 19 25 1004.4 - 0.0 - - 10 - - - -
02/04:00pm 31.4 NW 18 23 1004.3 - 0.0 - - 10 - - - -
02/03:30pm 32.5 NW 18 22 1004.5 - 0.0 - - 10 - - - -
02/03:00pm 32.5 NW 20 25 1004.6 - 0.0 - - 10 - - - -
02/02:30pm 32.4 NW 20 25 1004.8 - 0.0 - - 10 - - - -
02/02:00pm 33.3 NW 19 23 1004.9 - 0.0 - - 10 - - - -
02/01:30pm 33.6 WNW 19 24 1005.2 - 0.0 - - 10 - - - -
02/01:00pm 33.2 NW 19 23 1005.4 - 0.0 - Mostly clear 10 - - - -
02/12:30pm 32.8 NW 19 24 1005.6 - 0.0 - Mostly clear 10 - - - -
02/12:00pm 32.9 NW 19 24 1005.6 - 0.0 - - 10 - - - -
02/11:30am 33.6 NW 20 25 1005.8 - 0.0 - - 10 - - - -
02/11:00am 34.4 NW 16 20 1005.7 - 0.0 - - 10 - - - -
02/10:30am 34.2 NW 15 18 1005.9 - 0.0 - - 10 - - - -
02/10:00am 34.4 NW 15 20 1006.0 - 0.0 - - 10 - - - -
02/09:30am 34.3 NW 16 19 1006.2 - 0.0 - - 10 - - - -
02/09:00am 33.7 NW 14 17 1006.1 R 0.0 Fine Mostly clear 30 - - - -
02/08:30am 32.1 NW 13 16 1006.2 - 0.0 - - 10 - - - -

Other Formats:

Comma delimited format used in spreadsheet applications
http://www.bom.gov.au/fwo/IDW60701/IDW60701.94312.axf

JavaScript Object Notation format (JSON) in row-major order
http://www.bom.gov.au/fwo/IDW60701/IDW60701.94312.json